• Join FlightAware (Why Join?)
  • Login
  • US Flag 
12:12PM EDT


 

Airport Tracker/Info


-or-


 

Live Flight TrackerFlight Track Log ✈ CTL13 ✈ 10-Apr-2013 ✈ KMDW - KGRR

Flight Track Log - Related Links

Times and Time Zones

All times are in EDT time to prevent confusion due to time zone crossing. See the CTL13 flight status page for this flight to view local times or setup timezone preferences in your user account.

Time Position Orientation Groundspeed Altitude Reporting Facility
EDT Latitude Longitude Course Direction KTS MPH feet Rate Location/Type
11:22PM 41.8000 -87.7167 90° East 118 136 2,000  Level Chicago TRACON
11:23PM 41.8000 -87.6833 90° East 121 139 2,900 540 Climbing Chicago TRACON
11:24PM 41.8000 -87.6167 90° East 156 180 3,100 60 Climbing Chicago TRACON
11:25PM 41.7964 -87.5922 101° East 136 157 3,100  Level Chicago Center
11:26PM 41.8094 -87.5339 73° East 152 175 3,100  Level Chicago Center
11:27PM 41.8267 -87.4808 66° East 157 181 3,100  Level Chicago Center
11:28PM 41.8481 -87.4219 64° Northeast 151 174 3,100  Level Chicago Center
11:29PM 41.8722 -87.3758 55° Northeast 151 174 3,100  Level Chicago Center
11:30PM 41.8986 -87.3322 51° Northeast 151 174 3,100  Level Chicago Center
11:31PM 41.9228 -87.2864 55° Northeast 151 174 3,100  Level Chicago Center
11:32PM 41.9472 -87.2408 54° Northeast 151 174 3,100  Level Chicago Center
11:33PM 41.9722 -87.1964 53° Northeast 151 174 3,100  Level Chicago Center
11:34PM 41.9992 -87.1494 52° Northeast 154 177 3,100  Level Chicago Center
11:35PM 42.0247 -87.1042 53° Northeast 154 177 3,100  Level Chicago Center
11:36PM 42.0561 -87.0494 52° Northeast 155 178 3,100 -60 Level Chicago Center
11:37PM 42.0831 -87.0031 52° Northeast 156 180 3,000 -60 Descending Chicago Center
11:38PM 42.1058 -86.9644 52° Northeast 155 178 3,000  Level Chicago Center
11:40PM 42.1511 -86.8689 57° Northeast 164 189 3,000  Level Chicago Center
11:41PM 42.1786 -86.8292 47° Northeast 154 177 3,000  Level Chicago Center
11:42PM 42.2036 -86.7864 52° Northeast 149 171 3,000 -120 Level Chicago Center
11:43PM 42.2281 -86.7417 54° Northeast 148 170 2,800 -120 Descending Chicago Center
11:44PM 42.2522 -86.6975 54° Northeast 148 170 2,800  Level Chicago Center
11:45PM 42.2775 -86.6531 52° Northeast 145 167 2,800  Level Chicago Center
11:46PM 42.3008 -86.6106 53° Northeast 141 162 2,800  Level Chicago Center
11:47PM 42.3225 -86.5694 55° Northeast 143 165 2,800  Level Chicago Center
11:48PM 42.3450 -86.5267 55° Northeast 141 162 2,800  Level Chicago Center
11:49PM 42.3675 -86.4822 56° Northeast 143 165 2,800  Level Chicago Center
11:50PM 42.3978 -86.4322 51° Northeast 144 166 2,800  Level Chicago Center
11:51PM 42.4206 -86.3886 55° Northeast 142 163 2,900  Climbing Chicago Center
11:52PM 42.4419 -86.3469 55° Northeast 139 160 2,900  Level Chicago Center
11:53PM 42.4644 -86.3031 55° Northeast 140 161 2,900  Level Chicago Center
11:54PM 42.4869 -86.2636 52° Northeast 136 157 2,900  Level Chicago Center
11:55PM 42.5094 -86.2222 54° Northeast 136 157 2,900 -60 Level Chicago Center
11:56PM 42.5336 -86.1831 50° Northeast 136 157 2,800 -60 Descending Chicago Center
11:57PM 42.5575 -86.1447 50° Northeast 135 155 2,800  Level Chicago Center
11:58PM 42.5822 -86.1069 48° Northeast 134 154 2,800  Level Chicago Center
11:59PM 42.6119 -86.0756 38° Northeast 135 155 2,800  Level Chicago Center
12:00AM 42.6500 -86.0436 32° Northeast 136 157 2,800  Level Chicago Center
12:01AM 42.6800 -86.0139 36° Northeast 134 154 2,800  Level Chicago Center
12:02AM 42.7106 -85.9850 35° Northeast 134 154 2,800  Level Chicago Center
12:03AM 42.7383 -85.9564 37° Northeast 130 150 2,800  Level Chicago Center
12:04AM 42.7647 -85.9300 36° Northeast 124 143 2,800  Level Chicago Center
12:05AM 42.7858 -85.8983 48° Northeast 118 136 2,800  Level Chicago Center
12:06AM 42.8044 -85.8661 52° Northeast 113 130 2,900 60 Climbing Chicago Center
12:07AM 42.8233 -85.8342 51° Northeast 110 127 3,000 60 Climbing Chicago Center